Time;durP1;ratioP1;P1;durP2;ratioP2;P2;SDS_P1;SDS_P2;PMS_P1;PMS_P2;Temp;Humidity;BMP_temperature;BMP_pressure;BME280_temperature;BME280_humidity;BME280_pressure;Samples;Min_cycle;Max_cycle;Signal;HPM_P1;HPM_P2
2022/02/19 04:33:00;;;;;;;4.90;2.20;;;;;;;9.69;37.00;98561.44;7130660;23;20269;-88
2022/02/19 04:36:24;;;;;;;8.33;2.70;;;;;;;9.60;37.11;98568.09;6810318;29;20718;-87
2022/02/19 04:39:49;;;;;;;8.50;3.03;;;;;;;9.74;36.51;98601.22;6811469;29;20617;-87
2022/02/19 04:43:17;;;;;;;8.80;2.50;;;;;;;9.69;36.64;98612.59;6810972;29;20226;-87
2022/02/19 04:46:56;;;;;;;8.10;2.10;;;;;;;9.82;36.80;98660.25;6811725;29;20614;-87
2022/02/19 05:08:26;;;;;;;6.57;2.60;;;;;;;10.17;36.87;98700.34;6726668;29;20216;-87
2022/02/19 05:11:47;;;;;;;3.93;2.20;;;;;;;10.07;36.29;98654.13;6732383;29;20232;-87
2022/02/19 05:19:22;;;;;;;7.03;2.07;;;;;;;9.64;36.64;98611.56;6719995;29;20209;-87
2022/02/19 07:19:02;;;;;;;9.03;3.77;;;;;;;9.39;39.33;98850.75;6708490;29;20210;-87
2022/02/19 07:22:24;;;;;;;6.43;2.40;;;;;;;10.18;37.66;98860.13;6708457;29;20233;-87
2022/02/19 07:25:46;;;;;;;4.73;2.17;;;;;;;10.30;37.50;98902.47;6711218;29;20264;-87
2022/02/19 07:29:07;;;;;;;5.60;2.40;;;;;;;10.39;37.55;98882.38;6710759;29;20316;-87
2022/02/19 07:32:31;;;;;;;10.43;2.97;;;;;;;11.24;36.46;98905.00;6705481;29;20240;-87
2022/02/19 07:35:54;;;;;;;5.67;2.57;;;;;;;10.84;36.42;98870.91;6705164;29;20260;-88
2022/02/19 07:39:16;;;;;;;7.33;3.70;;;;;;;11.65;36.29;98916.44;6705560;29;20210;-87
2022/02/19 07:42:38;;;;;;;7.97;2.77;;;;;;;12.04;34.92;98880.41;6705700;29;20221;-88
2022/02/19 07:45:59;;;;;;;7.47;2.83;;;;;;;11.70;35.49;98964.41;6705185;29;20226;-87
2022/02/19 08:00:58;;;;;;;5.27;2.40;;;;;;;12.50;34.15;98948.66;6813466;29;20219;-86
2022/02/19 08:04:20;;;;;;;8.20;2.50;;;;;;;12.24;35.59;98998.25;6827905;29;20338;-85
2022/02/19 08:07:41;;;;;;;7.63;2.93;;;;;;;12.18;35.28;98990.97;6836864;28;20215;-85
2022/02/19 08:11:05;;;;;;;7.43;3.03;;;;;;;12.26;34.99;98965.56;6836831;28;20231;-86
2022/02/19 08:14:26;;;;;;;8.20;2.50;;;;;;;11.73;36.01;98994.53;6838391;29;20738;-85
2022/02/19 08:17:48;;;;;;;6.97;2.57;;;;;;;12.63;34.56;99002.72;6836599;29;20217;-86
2022/02/19 08:21:09;;;;;;;7.77;2.93;;;;;;;12.65;34.62;99003.31;6814245;29;20799;-85
2022/02/19 08:24:31;;;;;;;8.27;2.30;;;;;;;13.15;33.57;99000.63;6810011;29;20683;-85
2022/02/19 08:27:54;;;;;;;6.63;2.87;;;;;;;12.39;35.44;99017.75;6810144;29;20558;-84
2022/02/19 08:31:17;;;;;;;9.17;3.03;;;;;;;13.15;33.89;99007.94;6809613;29;20235;-86
2022/02/19 08:34:39;;;;;;;5.90;2.43;;;;;;;12.65;34.66;99000.63;6809039;29;20702;-86
2022/02/19 08:38:01;;;;;;;5.30;2.60;;;;;;;13.48;33.21;99008.56;6810623;29;20217;-86
2022/02/19 08:41:23;;;;;;;5.67;2.80;;;;;;;12.61;34.13;98992.09;6810671;29;20251;-86
2022/02/19 08:44:46;;;;;;;7.57;2.53;;;;;;;13.37;33.43;99023.63;6809221;29;20586;-85
2022/02/19 08:48:08;;;;;;;5.13;2.17;;;;;;;15.06;30.80;99023.94;6810039;29;20694;-85
2022/02/19 08:51:30;;;;;;;4.60;2.13;;;;;;;16.13;29.33;99011.91;6809469;29;20255;-86
2022/02/19 08:54:51;;;;;;;6.40;2.50;;;;;;;14.66;30.07;98947.59;6808100;29;20305;-85
2022/02/19 08:58:13;;;;;;;5.77;2.63;;;;;;;15.47;28.81;99024.03;6809138;29;20304;-86
2022/02/19 09:01:36;;;;;;;11.77;2.90;;;;;;;15.32;29.01;99018.16;6808472;29;20223;-85
2022/02/19 09:04:58;;;;;;;6.17;2.30;;;;;;;16.40;27.57;98996.78;6808688;29;20222;-85
2022/02/19 09:08:19;;;;;;;7.50;2.83;;;;;;;17.66;26.41;99016.59;6812067;29;20212;-86
2022/02/19 09:11:41;;;;;;;6.37;2.70;;;;;;;18.04;25.48;99023.00;6812086;29;20230;-85
2022/02/19 09:15:03;;;;;;;6.57;2.53;;;;;;;16.70;26.45;99013.78;6812317;29;20609;-86
2022/02/19 09:18:26;;;;;;;5.03;2.30;;;;;;;15.90;28.01;99024.63;6812371;29;20660;-86
2022/02/19 09:21:47;;;;;;;8.57;2.70;;;;;;;16.85;27.25;99033.19;6812077;29;20272;-86
2022/02/19 09:25:11;;;;;;;5.77;2.40;;;;;;;15.12;29.55;98998.59;6811216;29;20291;-86
2022/02/19 09:28:32;;;;;;;7.70;2.90;;;;;;;14.34;29.34;98931.72;6813492;29;20224;-86
2022/02/19 09:31:56;;;;;;;2.83;2.23;;;;;;;14.18;30.21;99030.72;6811065;29;20227;-87
2022/02/19 09:35:19;;;;;;;5.40;3.13;;;;;;;12.53;32.69;98991.50;6813066;29;20265;-87
2022/02/19 09:38:41;;;;;;;6.37;3.67;;;;;;;12.16;33.61;99035.47;6813070;29;20726;-87
2022/02/19 09:42:03;;;;;;;6.23;2.03;;;;;;;11.81;33.18;99034.03;6813292;29;20334;-85
2022/02/19 09:45:29;;;;;;;10.07;2.83;;;;;;;11.66;33.95;99036.94;6812517;29;20293;-86
2022/02/19 09:48:50;;;;;;;7.23;3.53;;;;;;;12.57;33.08;99065.78;6813745;29;20788;-87
2022/02/19 09:52:13;;;;;;;5.20;2.50;;;;;;;11.74;33.60;99071.03;6812626;29;20238;-87
2022/02/19 09:55:36;;;;;;;4.73;2.20;;;;;;;12.12;33.76;99061.25;6813597;29;20315;-87
2022/02/19 09:58:59;;;;;;;4.37;2.47;;;;;;;12.15;32.99;99053.56;6818393;29;20692;-86
2022/02/19 10:02:31;;;;;;;4.70;2.13;;;;;;;12.88;32.11;99071.31;6816937;29;20239;-87
2022/02/19 10:05:54;;;;;;;5.43;1.97;;;;;;;12.70;31.91;99030.56;6815835;29;20639;-87
2022/02/19 10:09:18;;;;;;;4.93;2.57;;;;;;;12.60;30.93;99093.22;6817544;29;20342;-87
2022/02/19 10:12:47;;;;;;;5.43;2.23;;;;;;;12.79;31.57;99061.75;6817950;29;20737;-87
2022/02/19 10:16:10;;;;;;;8.50;2.40;;;;;;;12.94;31.53;99073.16;6817393;29;20239;-87
2022/02/19 10:19:52;;;;;;;4.43;2.17;;;;;;;13.72;30.41;99089.91;6816734;29;20763;-87
2022/02/19 10:23:14;;;;;;;3.10;1.97;;;;;;;13.16;31.16;99088.09;6815902;29;20223;-87
2022/02/19 10:26:37;;;;;;;9.43;2.80;;;;;;;13.53;30.83;99080.00;6817362;29;20213;-87
2022/02/19 10:29:59;;;;;;;7.43;2.13;;;;;;;13.55;30.81;99091.44;6815831;29;20223;-86
2022/02/19 10:33:27;;;;;;;5.43;2.10;;;;;;;13.51;31.21;99084.78;6814659;29;20247;-85
2022/02/19 10:36:50;;;;;;;5.77;2.57;;;;;;;12.80;31.01;99031.78;6815986;29;20226;-86
2022/02/19 10:40:39;;;;;;;6.10;2.50;;;;;;;13.55;31.14;99074.34;6817076;29;20211;-86
2022/02/19 10:44:19;;;;;;;7.30;3.70;;;;;;;13.53;30.26;99071.03;6815964;29;20222;-86
2022/02/19 10:47:40;;;;;;;4.63;1.93;;;;;;;13.70;30.12;99059.44;6814299;29;20820;-86
2022/02/19 10:51:09;;;;;;;4.60;2.30;;;;;;;13.57;29.67;99069.56;6814204;29;20239;-86
2022/02/19 10:54:34;;;;;;;7.30;2.40;;;;;;;13.07;30.02;99067.72;6821528;29;20221;-85
2022/02/19 10:57:59;;;;;;;5.97;1.93;;;;;;;13.11;30.71;99071.66;6817849;29;20274;-86
2022/02/19 11:01:22;;;;;;;3.30;1.90;;;;;;;13.18;30.79;99070.59;6813963;29;20235;-86
2022/02/19 11:04:48;;;;;;;4.80;2.23;;;;;;;13.60;30.59;99069.13;6813826;29;20207;-86
2022/02/19 11:08:10;;;;;;;6.00;2.20;;;;;;;13.16;30.46;99083.50;6816310;29;20231;-84
2022/02/19 11:11:33;;;;;;;2.93;2.20;;;;;;;12.33;32.30;99094.28;6816901;29;20248;-86
2022/02/19 11:14:55;;;;;;;4.50;2.50;;;;;;;13.08;31.74;99093.75;6813433;29;20216;-86
2022/02/19 11:18:18;;;;;;;3.77;1.90;;;;;;;13.76;29.64;99082.16;6813867;29;20216;-86
2022/02/19 11:21:40;;;;;;;4.97;2.20;;;;;;;14.19;29.42;99064.13;6815528;29;20256;-87
2022/02/19 11:25:04;;;;;;;3.63;1.93;;;;;;;13.44;29.19;99067.75;6815820;29;20301;-86
2022/02/19 11:28:28;;;;;;;2.60;2.20;;;;;;;13.10;30.21;99076.25;6831129;29;20202;-86
2022/02/19 11:32:02;;;;;;;2.97;2.07;;;;;;;13.25;30.13;99075.97;6813425;29;20236;-86
2022/02/19 11:35:36;;;;;;;7.57;2.43;;;;;;;13.46;30.27;99076.47;6812631;29;20289;-86
2022/02/19 11:38:58;;;;;;;5.73;2.13;;;;;;;13.39;29.92;99077.59;6812539;29;20203;-86
2022/02/19 11:42:20;;;;;;;4.40;2.07;;;;;;;14.09;29.46;99050.22;6812397;29;20227;-86
2022/02/19 11:45:41;;;;;;;5.00;2.23;;;;;;;14.33;28.52;99055.66;6812000;29;20226;-86
2022/02/19 11:49:20;;;;;;;3.70;2.10;;;;;;;15.02;27.72;99036.31;6811839;29;20198;-86
2022/02/19 11:52:43;;;;;;;3.60;2.00;;;;;;;13.87;29.48;99044.31;6812100;29;20235;-86
2022/02/19 11:56:10;;;;;;;4.73;1.97;;;;;;;13.07;28.97;98963.00;6810590;29;20233;-86
2022/02/19 11:59:42;;;;;;;6.30;2.07;;;;;;;14.08;28.62;99021.41;6810067;29;20297;-87
2022/02/19 12:03:17;;;;;;;5.90;2.40;;;;;;;13.31;29.03;99034.50;6812149;29;20270;-86
2022/02/19 12:06:39;;;;;;;6.20;2.73;;;;;;;13.56;29.51;99019.97;6810078;29;20218;-86
2022/02/19 12:10:04;;;;;;;6.17;2.20;;;;;;;13.32;29.89;99006.34;6809709;29;20207;-86
2022/02/19 12:13:42;;;;;;;3.30;2.30;;;;;;;13.09;30.40;99019.63;6811171;29;20704;-86
2022/02/19 12:17:09;;;;;;;4.97;2.30;;;;;;;12.90;30.91;99025.91;6811266;29;20918;-85
2022/02/19 12:20:33;;;;;;;5.43;2.30;;;;;;;12.99;31.18;99024.66;6811343;29;20319;-86
2022/02/19 12:24:10;;;;;;;5.27;2.27;;;;;;;12.80;31.36;99030.97;6811299;29;20238;-87
2022/02/19 12:27:33;;;;;;;4.33;2.30;;;;;;;12.96;30.37;98987.19;6811030;29;20199;-86
2022/02/19 12:31:20;;;;;;;10.53;2.20;;;;;;;14.20;29.48;99023.22;6811020;29;20352;-86
2022/02/19 12:34:49;;;;;;;3.60;1.80;;;;;;;14.24;27.59;99015.47;6811260;29;20211;-86
2022/02/19 12:38:12;;;;;;;3.90;2.67;;;;;;;13.90;28.45;99011.38;6811416;29;20313;-86
2022/02/19 12:41:36;;;;;;;4.10;2.47;;;;;;;14.19;27.94;98972.75;6810378;29;20234;-86
2022/02/19 12:45:02;;;;;;;6.53;2.37;;;;;;;13.87;28.61;99010.97;6810228;29;20587;-86
2022/02/19 12:48:24;;;;;;;3.80;2.00;;;;;;;14.41;28.33;98986.72;6810616;29;20339;-86
2022/02/19 12:51:46;;;;;;;4.80;2.00;;;;;;;14.67;27.26;99006.25;6811081;29;20233;-86
2022/02/19 12:55:16;;;;;;;3.10;2.07;;;;;;;14.36;27.16;99006.38;6810299;29;20242;-86
2022/02/19 12:58:47;;;;;;;4.43;2.00;;;;;;;14.22;27.54;98985.84;6810666;29;20188;-86
2022/02/19 13:02:11;;;;;;;7.23;2.33;;;;;;;14.47;28.22;98980.41;6811273;29;20233;-86
2022/02/19 13:05:34;;;;;;;3.30;1.97;;;;;;;14.93;26.87;98962.47;6810353;29;20239;-86
2022/02/19 13:09:02;;;;;;;3.33;1.77;;;;;;;14.77;27.54;98978.56;6810419;29;20210;-86
2022/02/19 13:12:30;;;;;;;2.40;1.93;;;;;;;13.87;27.42;98905.28;6810584;29;20234;-86
2022/02/19 13:15:56;;;;;;;5.33;2.30;;;;;;;13.87;27.18;98973.84;6809543;29;20301;-86
2022/02/19 13:19:20;;;;;;;3.27;1.80;;;;;;;13.68;26.60;98911.72;6810828;29;20853;-86
2022/02/19 13:22:43;;;;;;;4.93;2.17;;;;;;;13.92;26.88;98963.19;6812412;29;20235;-86
2022/02/19 13:26:05;;;;;;;3.23;2.00;;;;;;;14.36;26.99;98929.59;6812417;29;20217;-86
2022/02/19 13:29:26;;;;;;;4.87;2.00;;;;;;;13.97;25.97;98830.50;6812036;29;20234;-86
2022/02/19 13:32:51;;;;;;;4.13;1.97;;;;;;;14.03;27.36;98931.78;6810454;29;20236;-86
2022/02/19 13:36:17;;;;;;;3.43;1.90;;;;;;;14.57;26.29;98932.66;6811121;29;20220;-86
2022/02/19 13:39:40;;;;;;;3.37;1.70;;;;;;;14.64;26.40;98924.47;6811019;29;20658;-86
2022/02/19 13:43:12;;;;;;;4.00;1.87;;;;;;;14.18;26.50;98914.13;6811194;29;20588;-86
2022/02/19 13:46:40;;;;;;;1.80;1.70;;;;;;;14.63;25.78;98925.53;6809472;29;20204;-86
2022/02/19 13:50:02;;;;;;;5.17;2.33;;;;;;;14.77;25.72;98908.00;6810048;29;20275;-86
2022/02/19 13:53:29;;;;;;;3.30;2.00;;;;;;;14.60;27.54;98924.09;6809498;29;20269;-86
2022/02/19 13:56:50;;;;;;;4.37;2.00;;;;;;;14.24;26.07;98921.41;6809182;29;20216;-85
2022/02/19 14:00:14;;;;;;;6.00;1.87;;;;;;;14.68;26.15;98918.34;6809785;29;20218;-86
2022/02/19 14:03:43;;;;;;;2.90;1.80;;;;;;;14.65;26.58;98926.97;6809818;29;20220;-86
2022/02/19 14:07:07;;;;;;;4.90;1.80;;;;;;;15.02;25.96;98933.13;6810468;29;20231;-86
2022/02/19 14:10:30;;;;;;;3.13;1.97;;;;;;;14.71;26.11;98925.19;6811414;29;20237;-86
2022/02/19 14:13:52;;;;;;;2.73;1.83;;;;;;;15.45;25.58;98925.63;6810504;29;20933;-86
2022/02/19 14:17:15;;;;;;;4.47;2.67;;;;;;;14.44;26.38;98932.84;6810343;29;20235;-85
2022/02/19 14:20:39;;;;;;;1.70;1.50;;;;;;;14.13;26.50;98908.56;6809699;29;20741;-86
2022/02/19 14:24:08;;;;;;;2.63;1.77;;;;;;;14.97;25.85;98932.97;6809380;29;20273;-86
2022/02/19 14:27:31;;;;;;;3.13;1.70;;;;;;;14.47;25.83;98918.84;6809082;29;20220;-86
2022/02/19 14:31:12;;;;;;;4.23;1.80;;;;;;;14.63;26.77;98936.38;6808219;29;20325;-86
2022/02/19 14:34:34;;;;;;;3.83;1.87;;;;;;;14.46;26.76;98928.00;6808838;29;20216;-86
2022/02/19 14:37:56;;;;;;;1.73;1.50;;;;;;;14.16;26.38;98870.13;6809784;29;20242;-86
2022/02/19 14:41:17;;;;;;;4.07;2.17;;;;;;;14.55;26.81;98929.38;6809494;29;20313;-86
2022/02/19 14:44:40;;;;;;;4.80;1.90;;;;;;;15.03;26.18;98915.78;6814018;29;20215;-86
2022/02/19 14:48:02;;;;;;;4.10;2.07;;;;;;;14.51;26.48;98940.91;6814607;29;20218;-85
2022/02/19 14:51:24;;;;;;;2.07;1.43;;;;;;;14.52;26.42;98943.38;6814376;29;20606;-86
2022/02/19 14:54:45;;;;;;;2.37;1.70;;;;;;;14.24;25.49;98942.25;6813327;29;20362;-86
2022/02/19 14:58:07;;;;;;;1.93;1.70;;;;;;;14.12;26.30;98933.16;6813742;29;20267;-86
2022/02/19 15:01:31;;;;;;;2.40;1.70;;;;;;;14.57;25.54;98907.44;6813773;29;20223;-86
2022/02/19 15:04:52;;;;;;;4.13;1.77;;;;;;;14.53;25.76;98942.34;6813469;29;20215;-86
2022/02/19 15:08:15;;;;;;;3.87;1.83;;;;;;;14.18;26.15;98940.41;6813955;29;20368;-86
2022/02/19 15:11:36;;;;;;;3.87;1.83;;;;;;;14.28;26.34;98938.84;6815265;29;20240;-86
2022/02/19 15:14:58;;;;;;;2.27;1.60;;;;;;;13.43;26.25;98846.72;6815684;29;20692;-86
2022/02/19 15:18:21;;;;;;;4.90;2.13;;;;;;;13.93;26.72;98945.84;6836103;28;20246;-87
2022/02/19 15:21:43;;;;;;;3.30;1.90;;;;;;;13.86;26.80;98925.31;6848679;29;20245;-86
2022/02/19 15:25:05;;;;;;;2.67;1.73;;;;;;;13.89;26.14;98909.44;6836683;29;20213;-87
2022/02/19 15:28:27;;;;;;;2.60;2.00;;;;;;;13.71;26.71;98927.53;6837575;29;20212;-87
2022/02/19 15:31:49;;;;;;;3.97;1.80;;;;;;;13.50;26.74;98893.53;6845840;29;20237;-87
2022/02/19 15:35:12;;;;;;;3.30;1.60;;;;;;;13.82;26.89;98910.53;6866647;29;20677;-86
2022/02/19 15:38:34;;;;;;;3.87;2.03;;;;;;;13.60;27.30;98901.16;6865112;29;20229;-87
2022/02/19 15:41:57;;;;;;;1.77;1.67;;;;;;;12.59;28.06;98841.88;6860272;28;20226;-86
2022/02/19 15:45:19;;;;;;;1.93;1.70;;;;;;;13.59;27.55;98891.38;6838534;28;20211;-86
2022/02/19 15:48:41;;;;;;;2.80;1.83;;;;;;;13.77;27.75;98916.63;6839400;28;20212;-86
2022/02/19 15:52:05;;;;;;;2.60;1.60;;;;;;;14.02;27.23;98897.59;6854545;28;20223;-87
2022/02/19 15:55:26;;;;;;;5.23;2.53;;;;;;;13.27;27.45;98906.84;6830770;28;20680;-86
2022/02/19 15:59:07;;;;;;;4.30;1.93;;;;;;;13.22;27.68;98878.78;6812235;29;20259;-86
2022/02/19 16:02:28;;;;;;;2.27;2.00;;;;;;;13.30;28.08;98875.78;6705803;29;20234;-85
2022/02/19 16:05:50;;;;;;;4.13;1.83;;;;;;;13.19;28.00;98850.25;6704596;29;20211;-86
2022/02/19 16:09:13;;;;;;;2.80;2.00;;;;;;;13.19;28.17;98880.03;6704802;29;20243;-85
2022/02/19 16:12:35;;;;;;;2.33;1.87;;;;;;;13.49;28.58;98882.91;6704213;29;20242;-86
2022/02/19 16:15:57;;;;;;;3.03;2.40;;;;;;;13.26;28.43;98886.22;6703064;29;20309;-85
2022/02/19 16:19:18;;;;;;;2.13;1.80;;;;;;;13.08;28.32;98877.19;6703922;29;20230;-86
2022/02/19 16:22:40;;;;;;;3.27;2.13;;;;;;;13.69;28.02;98914.19;6703672;29;20234;-86
2022/02/19 16:26:04;;;;;;;3.03;2.17;;;;;;;13.53;28.52;98933.72;6703002;29;20253;-86
2022/02/19 16:29:28;;;;;;;4.43;2.23;;;;;;;13.29;29.26;98928.28;6702240;29;20236;-86
2022/02/19 16:32:50;;;;;;;5.10;2.47;;;;;;;13.51;29.45;98922.25;6703065;29;20731;-86
2022/02/19 16:36:12;;;;;;;4.63;2.10;;;;;;;13.19;29.39;98927.94;6702487;29;20220;-85
2022/02/19 16:39:33;;;;;;;3.13;2.03;;;;;;;13.05;29.60;98926.38;6770834;29;20218;-86
2022/02/19 16:42:57;;;;;;;5.57;2.00;;;;;;;13.10;29.57;98924.66;6809824;29;20380;-86
2022/02/19 16:46:33;;;;;;;4.73;2.13;;;;;;;12.74;30.03;98934.41;6808997;29;20656;-86
2022/02/19 16:49:55;;;;;;;4.33;2.20;;;;;;;13.00;29.61;98918.06;6702927;29;20228;-85
2022/02/19 16:53:16;;;;;;;6.00;2.00;;;;;;;12.87;29.71;98935.16;6702963;29;20224;-85
2022/02/19 16:56:38;;;;;;;4.17;2.10;;;;;;;12.66;29.92;98943.59;6702905;29;20230;-84
2022/02/19 17:00:01;;;;;;;6.93;2.47;;;;;;;12.86;29.88;98936.22;6703978;29;20224;-85
2022/02/19 17:03:23;;;;;;;2.93;2.13;;;;;;;12.86;29.94;98930.00;6703725;29;20274;-86
2022/02/19 17:06:44;;;;;;;2.37;2.17;;;;;;;12.50;30.49;98922.44;6702867;29;20653;-85
2022/02/19 17:10:07;;;;;;;9.07;5.47;;;;;;;13.06;29.90;98911.78;6705037;29;20236;-85
2022/02/19 17:13:29;;;;;;;10.50;6.13;;;;;;;12.41;29.95;98837.22;6704240;29;20321;-85
2022/02/19 17:16:52;;;;;;;5.30;2.93;;;;;;;12.92;29.47;98893.94;6704170;29;20590;-85
2022/02/19 17:45:43;;;;;;;6.00;3.30;;;;;;;10.92;34.43;98889.56;6752463;29;20644;-88
2022/02/19 17:49:04;;;;;;;16.87;9.40;;;;;;;10.10;35.36;98825.28;6753498;29;20294;-87
2022/02/19 17:52:26;;;;;;;11.60;7.50;;;;;;;10.00;36.01;98838.25;6753091;29;20224;-88
2022/02/19 17:55:48;;;;;;;7.57;5.13;;;;;;;10.27;35.62;98835.50;6753062;29;20209;-87
2022/02/19 17:59:09;;;;;;;8.57;5.00;;;;;;;10.13;36.31;98859.91;6753613;29;20232;-88
2022/02/19 18:02:32;;;;;;;10.10;4.93;;;;;;;10.10;37.10;98901.53;6804430;29;20685;-88
2022/02/19 18:05:54;;;;;;;8.87;4.30;;;;;;;9.77;37.47;98899.66;6809215;29;20215;-88
2022/02/19 18:09:16;;;;;;;6.13;4.53;;;;;;;9.27;38.07;98811.97;6814700;29;20580;-88
2022/02/19 18:12:38;;;;;;;12.17;4.50;;;;;;;9.63;38.69;98922.97;6817710;29;20235;-88
2022/02/19 18:16:00;;;;;;;11.53;5.33;;;;;;;9.39;39.18;98922.59;6814594;29;20210;-88
2022/02/19 18:19:23;;;;;;;9.47;5.87;;;;;;;9.34;39.27;98881.97;6815287;29;20242;-88
2022/02/19 18:22:47;;;;;;;14.10;6.00;;;;;;;8.01;40.98;98800.41;6830353;29;20230;-88
2022/02/19 18:26:11;;;;;;;10.33;5.40;;;;;;;8.87;40.77;98891.69;6814158;29;20719;-88
2022/02/19 18:29:57;;;;;;;8.50;5.40;;;;;;;8.85;41.31;98924.13;6812497;29;20241;-88
2022/02/19 18:33:19;;;;;;;10.20;5.93;;;;;;;8.56;40.75;98851.69;6830474;29;20256;-89
2022/02/19 18:36:43;;;;;;;12.30;5.90;;;;;;;9.22;40.15;98907.75;6840352;29;20202;-87
2022/02/19 18:40:11;;;;;;;9.97;5.40;;;;;;;8.31;39.73;98748.28;6840803;29;20230;-86
2022/02/19 18:43:51;;;;;;;7.40;4.13;;;;;;;8.28;39.67;98774.72;6841994;29;20206;-88
2022/02/19 18:47:21;;;;;;;8.43;4.37;;;;;;;8.75;39.73;98832.25;6841990;29;20197;-88
2022/02/19 18:55:17;;;;;;;9.10;4.50;;;;;;;8.71;40.20;98862.38;6838308;29;20632;-88
2022/02/19 18:58:44;;;;;;;7.50;4.33;;;;;;;8.50;39.75;98787.97;6843064;29;20229;-89
2022/02/19 19:02:06;;;;;;;10.10;5.40;;;;;;;9.04;39.56;98869.72;6844033;28;20233;-89
2022/02/19 19:05:28;;;;;;;9.83;4.93;;;;;;;9.29;39.35;98906.78;6845718;29;20202;-87
2022/02/19 19:09:00;;;;;;;6.40;3.80;;;;;;;8.90;39.68;98834.84;6844829;29;20201;-89
2022/02/19 19:12:26;;;;;;;6.03;3.80;;;;;;;9.03;38.73;98862.69;6865061;28;20221;-89
2022/02/19 19:15:51;;;;;;;6.80;4.20;;;;;;;8.77;38.18;98778.28;6846358;29;20224;-87
2022/02/19 19:19:15;;;;;;;6.00;4.03;;;;;;;9.85;37.80;98896.78;6846411;29;20232;-89
2022/02/19 19:22:37;;;;;;;3.67;2.80;;;;;;;9.57;37.58;98829.53;6847169;28;20222;-89
2022/02/19 19:25:59;;;;;;;7.60;3.77;;;;;;;9.74;37.49;98844.34;6844612;29;20552;-86
2022/02/19 19:29:37;;;;;;;7.67;3.77;;;;;;;9.96;37.97;98877.38;6841774;28;20210;-88
2022/02/19 19:33:05;;;;;;;6.47;3.63;;;;;;;9.46;37.63;98805.06;6835761;29;20233;-88
2022/02/19 19:36:30;;;;;;;6.53;2.97;;;;;;;9.18;38.69;98866.09;6843976;29;20563;-86
2022/02/19 19:39:55;;;;;;;6.17;3.33;;;;;;;9.93;37.67;98875.94;6846351;29;20248;-88
2022/02/19 19:43:16;;;;;;;3.87;2.87;;;;;;;10.01;37.29;98842.63;6845215;28;20256;-88
2022/02/19 19:46:39;;;;;;;6.17;3.53;;;;;;;9.50;38.18;98795.56;6843448;29;20205;-89
2022/02/19 19:50:04;;;;;;;8.30;3.63;;;;;;;9.89;38.04;98852.28;6845001;28;20206;-85
2022/02/19 19:53:34;;;;;;;7.30;3.17;;;;;;;9.46;38.29;98791.59;6844893;29;20729;-86
2022/02/19 19:57:00;;;;;;;4.97;2.57;;;;;;;9.89;37.75;98806.50;6845080;29;20193;-86
2022/02/19 20:00:23;;;;;;;4.97;3.00;;;;;;;10.03;37.93;98860.28;6846778;28;20201;-85
2022/02/19 20:03:47;;;;;;;7.20;3.53;;;;;;;10.04;37.43;98799.97;6846913;29;20290;-85
2022/02/19 20:07:08;;;;;;;15.77;6.63;;;;;;;10.21;38.45;98873.22;6848137;29;20209;-85
2022/02/19 20:10:30;;;;;;;9.23;3.70;;;;;;;10.60;37.34;98862.53;6847157;28;20253;-85
2022/02/19 20:18:01;;;;;;;6.20;3.57;;;;;;;10.56;36.60;98874.78;6843153;29;20841;-90
2022/02/19 20:21:26;;;;;;;5.73;3.40;;;;;;;10.25;36.69;98785.53;6842503;28;20600;-87
2022/02/19 20:24:47;;;;;;;4.77;2.80;;;;;;;10.31;35.95;98777.47;6842694;29;20202;-88
2022/02/19 20:28:09;;;;;;;4.90;2.80;;;;;;;10.66;35.68;98808.66;6843196;28;20206;-87
2022/02/19 20:31:32;;;;;;;7.83;3.27;;;;;;;10.62;36.70;98855.09;6843522;29;20229;-87
2022/02/19 20:34:53;;;;;;;4.67;2.90;;;;;;;10.26;37.28;98841.09;6847357;28;20213;-88
2022/02/19 20:38:20;;;;;;;8.27;3.87;;;;;;;10.18;37.74;98847.50;6849393;28;20234;-90
2022/02/19 20:41:45;;;;;;;7.40;3.23;;;;;;;10.00;37.96;98873.28;6848167;28;20226;-90
2022/02/19 20:45:08;;;;;;;6.50;3.47;;;;;;;10.12;37.57;98869.00;6848812;29;20228;-90
2022/02/19 20:48:31;;;;;;;4.40;2.80;;;;;;;10.23;36.68;98860.34;6847273;29;20575;-89
2022/02/19 20:52:02;;;;;;;6.17;3.00;;;;;;;10.32;36.78;98861.81;6845765;28;20245;-89
2022/02/19 20:55:26;;;;;;;4.70;2.50;;;;;;;9.40;37.74;98817.44;6846023;29;20232;-87
2022/02/19 20:58:56;;;;;;;3.60;2.60;;;;;;;9.81;36.64;98782.47;6843828;28;20757;-90
2022/02/19 21:02:18;;;;;;;4.13;2.60;;;;;;;9.61;37.57;98781.53;6843441;28;20312;-89
2022/02/19 21:05:43;;;;;;;4.63;2.40;;;;;;;8.89;37.65;98737.22;6844057;29;20580;-91
2022/02/19 21:09:05;;;;;;;3.80;2.67;;;;;;;9.73;36.96;98805.00;6844474;28;20213;-92
2022/02/19 21:12:28;;;;;;;3.60;2.30;;;;;;;10.01;36.28;98741.09;6844347;28;20225;-94
2022/02/19 21:15:50;;;;;;;3.10;2.27;;;;;;;9.90;36.07;98741.69;6844675;28;20243;-91
2022/02/19 21:19:16;;;;;;;5.83;2.10;;;;;;;10.02;36.14;98768.84;6845678;28;20233;-93
2022/02/19 21:22:43;;;;;;;4.83;2.60;;;;;;;10.97;35.26;98841.25;6846551;28;20240;-93
2022/02/19 21:26:05;;;;;;;4.00;2.30;;;;;;;10.96;34.79;98792.88;6861136;28;20217;-93
2022/02/19 21:29:32;;;;;;;5.43;2.50;;;;;;;10.46;35.07;98759.25;6855194;28;20333;-93
2022/02/19 21:32:57;;;;;;;6.03;2.53;;;;;;;10.20;35.43;98759.22;6850167;28;20226;-93
2022/02/19 21:36:48;;;;;;;10.33;2.80;;;;;;;9.90;35.47;98706.69;6851609;28;20202;-93
2022/02/19 21:46:57;;;;;;;5.03;2.20;;;;;;;10.32;35.55;98746.78;6833598;28;20305;-75
2022/02/19 21:50:19;;;;;;;4.83;2.07;;;;;;;10.66;35.43;98779.00;6834711;28;20197;-75
2022/02/19 21:53:41;;;;;;;4.73;2.40;;;;;;;10.83;35.27;98795.59;6838242;28;20213;-75
2022/02/19 21:57:04;;;;;;;2.63;2.43;;;;;;;10.31;36.22;98801.72;6840422;29;20670;-75
2022/02/19 22:00:25;;;;;;;7.43;2.47;;;;;;;10.28;36.46;98814.78;6840008;29;20237;-75
